Airport ID:KCXP
Update Time (UTC):06/04/2020 19:35
Wind Speed (Knots):11
Wind Direction (Magnetic):320
Temperature (°C):5
Dew Point (°C):-1
Humidity (%):66
Altimeter (inHg):29.81
Density Altitude (Feet):
Visibility (Miles):10+
Clouds (Hundreds of feet):SCT026 SCT080
Present Weather:
METAR:METAR KCXP 061930Z AUTO 33010KT 10SM SCT025 SCT080 05/M01 A2981 RMK AO2

The data displayed is for advisory purposes only and is not to be used for flight planning or operations.

This page is not automatically refreshed. Reload the page to see current data.